sensor_id;sensor_type;location;lat;lon;timestamp;P1;durP1;ratioP1;P2;durP2;ratioP2
41436;SDS011;27178;49.460;10.850;2023-09-30T00:01:51;5.35;;;3.22;;
41436;SDS011;27178;49.460;10.850;2023-09-30T00:04:19;3.78;;;3.25;;
41436;SDS011;27178;49.460;10.850;2023-09-30T00:06:48;3.70;;;2.58;;
41436;SDS011;27178;49.460;10.850;2023-09-30T00:09:16;5.13;;;3.10;;
41436;SDS011;27178;49.460;10.850;2023-09-30T00:11:44;3.75;;;2.58;;
41436;SDS011;27178;49.460;10.850;2023-09-30T00:14:14;6.18;;;2.90;;
41436;SDS011;27178;49.460;10.850;2023-09-30T00:16:43;4.40;;;2.83;;
41436;SDS011;27178;49.460;10.850;2023-09-30T00:19:11;3.50;;;2.78;;
41436;SDS011;27178;49.460;10.850;2023-09-30T00:21:40;5.75;;;3.50;;
41436;SDS011;27178;49.460;10.850;2023-09-30T00:24:09;3.97;;;2.97;;
41436;SDS011;27178;49.460;10.850;2023-09-30T00:26:37;3.95;;;2.80;;
41436;SDS011;27178;49.460;10.850;2023-09-30T00:29:06;5.20;;;3.25;;
41436;SDS011;27178;49.460;10.850;2023-09-30T00:31:35;4.90;;;2.90;;
41436;SDS011;27178;49.460;10.850;2023-09-30T00:34:03;3.80;;;2.80;;
41436;SDS011;27178;49.460;10.850;2023-09-30T00:36:32;4.10;;;3.10;;
41436;SDS011;27178;49.460;10.850;2023-09-30T00:39:00;4.57;;;3.47;;
41436;SDS011;27178;49.460;10.850;2023-09-30T00:41:29;3.65;;;2.67;;
41436;SDS011;27178;49.460;10.850;2023-09-30T00:43:57;3.45;;;2.72;;
41436;SDS011;27178;49.460;10.850;2023-09-30T00:46:26;4.95;;;2.92;;
41436;SDS011;27178;49.460;10.850;2023-09-30T00:48:58;4.65;;;3.15;;
41436;SDS011;27178;49.460;10.850;2023-09-30T00:51:28;5.95;;;3.63;;
41436;SDS011;27178;49.460;10.850;2023-09-30T00:53:57;4.05;;;2.92;;
41436;SDS011;27178;49.460;10.850;2023-09-30T00:56:27;3.95;;;2.70;;
41436;SDS011;27178;49.460;10.850;2023-09-30T00:58:57;4.95;;;2.95;;
41436;SDS011;27178;49.460;10.850;2023-09-30T01:01:26;4.97;;;3.58;;
41436;SDS011;27178;49.460;10.850;2023-09-30T01:03:54;4.82;;;3.10;;
41436;SDS011;27178;49.460;10.850;2023-09-30T01:06:26;4.00;;;3.15;;
41436;SDS011;27178;49.460;10.850;2023-09-30T01:08:54;3.58;;;2.55;;
41436;SDS011;27178;49.460;10.850;2023-09-30T01:11:22;4.60;;;3.05;;
41436;SDS011;27178;49.460;10.850;2023-09-30T01:13:51;3.92;;;2.50;;
41436;SDS011;27178;49.460;10.850;2023-09-30T01:16:19;4.93;;;2.92;;
41436;SDS011;27178;49.460;10.850;2023-09-30T01:18:47;6.28;;;2.90;;
41436;SDS011;27178;49.460;10.850;2023-09-30T01:21:17;5.10;;;3.60;;
41436;SDS011;27178;49.460;10.850;2023-09-30T01:23:47;3.90;;;2.50;;
41436;SDS011;27178;49.460;10.850;2023-09-30T01:26:15;4.53;;;2.78;;
41436;SDS011;27178;49.460;10.850;2023-09-30T01:28:44;3.92;;;2.63;;
41436;SDS011;27178;49.460;10.850;2023-09-30T01:31:15;4.18;;;3.20;;
41436;SDS011;27178;49.460;10.850;2023-09-30T01:33:43;4.97;;;3.10;;
41436;SDS011;27178;49.460;10.850;2023-09-30T01:36:11;3.80;;;2.67;;
41436;SDS011;27178;49.460;10.850;2023-09-30T01:38:40;5.07;;;3.17;;
41436;SDS011;27178;49.460;10.850;2023-09-30T01:41:10;3.58;;;2.83;;
41436;SDS011;27178;49.460;10.850;2023-09-30T01:43:38;5.90;;;2.88;;
41436;SDS011;27178;49.460;10.850;2023-09-30T01:46:07;6.15;;;3.38;;
41436;SDS011;27178;49.460;10.850;2023-09-30T01:48:34;3.55;;;2.80;;
41436;SDS011;27178;49.460;10.850;2023-09-30T01:51:03;4.70;;;2.83;;
41436;SDS011;27178;49.460;10.850;2023-09-30T01:53:32;5.97;;;3.42;;
41436;SDS011;27178;49.460;10.850;2023-09-30T01:56:01;4.05;;;2.70;;
41436;SDS011;27178;49.460;10.850;2023-09-30T01:58:31;3.95;;;3.00;;
41436;SDS011;27178;49.460;10.850;2023-09-30T02:01:01;3.30;;;2.50;;
41436;SDS011;27178;49.460;10.850;2023-09-30T02:03:30;4.32;;;3.08;;
41436;SDS011;27178;49.460;10.850;2023-09-30T02:05:59;5.10;;;2.65;;
41436;SDS011;27178;49.460;10.850;2023-09-30T02:08:27;4.07;;;2.45;;
41436;SDS011;27178;49.460;10.850;2023-09-30T02:10:56;4.50;;;2.95;;
41436;SDS011;27178;49.460;10.850;2023-09-30T02:13:24;4.65;;;2.15;;
41436;SDS011;27178;49.460;10.850;2023-09-30T02:15:53;2.08;;;1.80;;
41436;SDS011;27178;49.460;10.850;2023-09-30T02:18:23;2.13;;;1.70;;
41436;SDS011;27178;49.460;10.850;2023-09-30T02:20:51;1.80;;;1.55;;
41436;SDS011;27178;49.460;10.850;2023-09-30T02:23:20;2.53;;;1.95;;
41436;SDS011;27178;49.460;10.850;2023-09-30T02:25:49;2.08;;;1.55;;
41436;SDS011;27178;49.460;10.850;2023-09-30T02:28:17;1.92;;;1.60;;
41436;SDS011;27178;49.460;10.850;2023-09-30T02:30:45;2.45;;;1.50;;
41436;SDS011;27178;49.460;10.850;2023-09-30T02:33:16;1.45;;;1.33;;
41436;SDS011;27178;49.460;10.850;2023-09-30T02:35:52;1.60;;;1.15;;
41436;SDS011;27178;49.460;10.850;2023-09-30T02:38:20;1.65;;;1.10;;
41436;SDS011;27178;49.460;10.850;2023-09-30T02:40:49;1.65;;;1.50;;
41436;SDS011;27178;49.460;10.850;2023-09-30T02:43:18;1.30;;;1.20;;
41436;SDS011;27178;49.460;10.850;2023-09-30T02:45:47;1.50;;;1.40;;
41436;SDS011;27178;49.460;10.850;2023-09-30T02:48:17;2.03;;;1.30;;
41436;SDS011;27178;49.460;10.850;2023-09-30T02:50:45;2.60;;;1.20;;
41436;SDS011;27178;49.460;10.850;2023-09-30T02:53:15;2.80;;;0.95;;
41436;SDS011;27178;49.460;10.850;2023-09-30T02:55:43;1.02;;;0.98;;
41436;SDS011;27178;49.460;10.850;2023-09-30T02:58:11;1.27;;;1.17;;
41436;SDS011;27178;49.460;10.850;2023-09-30T03:00:41;1.30;;;1.20;;
41436;SDS011;27178;49.460;10.850;2023-09-30T03:03:09;1.30;;;1.20;;
41436;SDS011;27178;49.460;10.850;2023-09-30T03:05:39;1.58;;;1.45;;
41436;SDS011;27178;49.460;10.850;2023-09-30T03:08:07;1.30;;;1.20;;
41436;SDS011;27178;49.460;10.850;2023-09-30T03:10:37;1.25;;;1.15;;
41436;SDS011;27178;49.460;10.850;2023-09-30T03:13:07;1.90;;;1.42;;
41436;SDS011;27178;49.460;10.850;2023-09-30T03:15:36;2.03;;;1.67;;
41436;SDS011;27178;49.460;10.850;2023-09-30T03:18:05;4.00;;;1.48;;
41436;SDS011;27178;49.460;10.850;2023-09-30T03:20:34;2.95;;;1.90;;
41436;SDS011;27178;49.460;10.850;2023-09-30T03:23:07;3.58;;;2.22;;
41436;SDS011;27178;49.460;10.850;2023-09-30T03:25:38;2.85;;;1.83;;
41436;SDS011;27178;49.460;10.850;2023-09-30T03:28:08;3.35;;;2.30;;
41436;SDS011;27178;49.460;10.850;2023-09-30T03:30:37;4.60;;;2.08;;
41436;SDS011;27178;49.460;10.850;2023-09-30T03:33:05;3.28;;;2.13;;
41436;SDS011;27178;49.460;10.850;2023-09-30T03:35:34;4.47;;;2.03;;
41436;SDS011;27178;49.460;10.850;2023-09-30T03:38:03;3.08;;;2.10;;
41436;SDS011;27178;49.460;10.850;2023-09-30T03:40:33;2.92;;;2.38;;
41436;SDS011;27178;49.460;10.850;2023-09-30T03:43:02;4.07;;;2.58;;
41436;SDS011;27178;49.460;10.850;2023-09-30T03:45:32;3.55;;;2.20;;
41436;SDS011;27178;49.460;10.850;2023-09-30T03:48:01;2.40;;;2.03;;
41436;SDS011;27178;49.460;10.850;2023-09-30T03:50:29;3.15;;;2.20;;
41436;SDS011;27178;49.460;10.850;2023-09-30T03:53:00;2.60;;;1.92;;
41436;SDS011;27178;49.460;10.850;2023-09-30T03:55:29;3.72;;;2.42;;
41436;SDS011;27178;49.460;10.850;2023-09-30T03:57:58;3.75;;;2.13;;
41436;SDS011;27178;49.460;10.850;2023-09-30T04:00:27;3.42;;;2.13;;
41436;SDS011;27178;49.460;10.850;2023-09-30T04:02:56;3.08;;;2.25;;
41436;SDS011;27178;49.460;10.850;2023-09-30T04:05:26;2.22;;;1.95;;
41436;SDS011;27178;49.460;10.850;2023-09-30T04:07:56;3.13;;;2.20;;
41436;SDS011;27178;49.460;10.850;2023-09-30T04:10:25;2.67;;;1.73;;
41436;SDS011;27178;49.460;10.850;2023-09-30T04:12:53;2.53;;;2.00;;
41436;SDS011;27178;49.460;10.850;2023-09-30T04:15:22;3.05;;;1.90;;
41436;SDS011;27178;49.460;10.850;2023-09-30T04:17:52;3.20;;;1.95;;
41436;SDS011;27178;49.460;10.850;2023-09-30T04:20:21;2.20;;;1.90;;
41436;SDS011;27178;49.460;10.850;2023-09-30T04:22:53;2.78;;;2.10;;
41436;SDS011;27178;49.460;10.850;2023-09-30T04:25:24;2.30;;;1.75;;
41436;SDS011;27178;49.460;10.850;2023-09-30T04:27:53;3.53;;;1.92;;
41436;SDS011;27178;49.460;10.850;2023-09-30T04:30:21;2.15;;;1.95;;
41436;SDS011;27178;49.460;10.850;2023-09-30T04:32:50;2.63;;;1.90;;
41436;SDS011;27178;49.460;10.850;2023-09-30T04:35:20;3.42;;;2.15;;
41436;SDS011;27178;49.460;10.850;2023-09-30T04:37:49;3.92;;;1.92;;
41436;SDS011;27178;49.460;10.850;2023-09-30T04:40:17;2.17;;;1.90;;
41436;SDS011;27178;49.460;10.850;2023-09-30T04:42:47;1.95;;;1.65;;
41436;SDS011;27178;49.460;10.850;2023-09-30T04:45:16;2.88;;;2.17;;
41436;SDS011;27178;49.460;10.850;2023-09-30T04:47:47;3.67;;;2.38;;
41436;SDS011;27178;49.460;10.850;2023-09-30T04:50:17;2.33;;;1.95;;
41436;SDS011;27178;49.460;10.850;2023-09-30T04:52:50;3.05;;;1.90;;
41436;SDS011;27178;49.460;10.850;2023-09-30T04:55:19;2.38;;;1.85;;
41436;SDS011;27178;49.460;10.850;2023-09-30T04:57:49;1.95;;;1.73;;
41436;SDS011;27178;49.460;10.850;2023-09-30T05:00:19;2.30;;;1.75;;
41436;SDS011;27178;49.460;10.850;2023-09-30T05:02:52;2.72;;;2.00;;
41436;SDS011;27178;49.460;10.850;2023-09-30T05:05:23;2.13;;;1.83;;
41436;SDS011;27178;49.460;10.850;2023-09-30T05:07:52;2.10;;;1.48;;
41436;SDS011;27178;49.460;10.850;2023-09-30T05:10:21;2.40;;;1.98;;
41436;SDS011;27178;49.460;10.850;2023-09-30T05:12:51;2.95;;;2.00;;
41436;SDS011;27178;49.460;10.850;2023-09-30T05:15:21;2.92;;;2.00;;
41436;SDS011;27178;49.460;10.850;2023-09-30T05:17:49;2.22;;;1.85;;
41436;SDS011;27178;49.460;10.850;2023-09-30T05:20:18;2.20;;;1.63;;
41436;SDS011;27178;49.460;10.850;2023-09-30T05:22:47;2.47;;;1.77;;
41436;SDS011;27178;49.460;10.850;2023-09-30T05:25:17;2.60;;;1.90;;
41436;SDS011;27178;49.460;10.850;2023-09-30T05:27:45;2.63;;;2.15;;
41436;SDS011;27178;49.460;10.850;2023-09-30T05:30:15;2.83;;;2.17;;
41436;SDS011;27178;49.460;10.850;2023-09-30T05:32:46;3.47;;;1.88;;
41436;SDS011;27178;49.460;10.850;2023-09-30T05:35:15;1.80;;;1.58;;
41436;SDS011;27178;49.460;10.850;2023-09-30T05:37:44;2.50;;;1.90;;
41436;SDS011;27178;49.460;10.850;2023-09-30T05:40:13;1.85;;;1.50;;
41436;SDS011;27178;49.460;10.850;2023-09-30T05:42:51;1.85;;;1.40;;
41436;SDS011;27178;49.460;10.850;2023-09-30T05:45:21;2.10;;;1.77;;
41436;SDS011;27178;49.460;10.850;2023-09-30T05:47:51;2.05;;;1.85;;
41436;SDS011;27178;49.460;10.850;2023-09-30T05:50:20;3.97;;;2.20;;
41436;SDS011;27178;49.460;10.850;2023-09-30T05:52:53;2.35;;;1.70;;
41436;SDS011;27178;49.460;10.850;2023-09-30T05:55:23;2.95;;;1.70;;
41436;SDS011;27178;49.460;10.850;2023-09-30T05:57:54;2.90;;;2.10;;
41436;SDS011;27178;49.460;10.850;2023-09-30T06:00:23;2.63;;;1.90;;
41436;SDS011;27178;49.460;10.850;2023-09-30T06:02:55;2.40;;;1.98;;
41436;SDS011;27178;49.460;10.850;2023-09-30T06:05:25;4.80;;;1.90;;
41436;SDS011;27178;49.460;10.850;2023-09-30T06:07:57;3.13;;;1.90;;
41436;SDS011;27178;49.460;10.850;2023-09-30T06:10:26;3.45;;;2.13;;
41436;SDS011;27178;49.460;10.850;2023-09-30T06:12:56;2.35;;;2.15;;
41436;SDS011;27178;49.460;10.850;2023-09-30T06:15:25;1.75;;;1.52;;
41436;SDS011;27178;49.460;10.850;2023-09-30T06:17:54;2.22;;;1.80;;
41436;SDS011;27178;49.460;10.850;2023-09-30T06:20:24;2.83;;;1.95;;
41436;SDS011;27178;49.460;10.850;2023-09-30T06:22:54;2.55;;;1.92;;
41436;SDS011;27178;49.460;10.850;2023-09-30T06:25:23;3.45;;;2.03;;
41436;SDS011;27178;49.460;10.850;2023-09-30T06:27:55;3.15;;;1.95;;
41436;SDS011;27178;49.460;10.850;2023-09-30T06:30:24;3.10;;;2.00;;
41436;SDS011;27178;49.460;10.850;2023-09-30T06:32:57;3.53;;;2.25;;
41436;SDS011;27178;49.460;10.850;2023-09-30T06:35:27;3.95;;;2.28;;
41436;SDS011;27178;49.460;10.850;2023-09-30T06:37:57;3.30;;;2.10;;
41436;SDS011;27178;49.460;10.850;2023-09-30T06:40:26;4.20;;;2.30;;
41436;SDS011;27178;49.460;10.850;2023-09-30T06:42:56;3.00;;;2.00;;
41436;SDS011;27178;49.460;10.850;2023-09-30T06:45:24;2.22;;;1.83;;
41436;SDS011;27178;49.460;10.850;2023-09-30T06:47:53;2.65;;;2.05;;
41436;SDS011;27178;49.460;10.850;2023-09-30T06:50:22;2.22;;;1.80;;
41436;SDS011;27178;49.460;10.850;2023-09-30T06:52:51;3.13;;;2.33;;
41436;SDS011;27178;49.460;10.850;2023-09-30T06:55:20;5.45;;;2.33;;
41436;SDS011;27178;49.460;10.850;2023-09-30T06:57:49;3.47;;;2.40;;
41436;SDS011;27178;49.460;10.850;2023-09-30T07:00:19;5.00;;;2.80;;
41436;SDS011;27178;49.460;10.850;2023-09-30T07:02:48;2.95;;;2.00;;
41436;SDS011;27178;49.460;10.850;2023-09-30T07:05:16;2.58;;;2.17;;
41436;SDS011;27178;49.460;10.850;2023-09-30T07:07:45;3.30;;;2.05;;
41436;SDS011;27178;49.460;10.850;2023-09-30T07:10:13;4.70;;;2.60;;
41436;SDS011;27178;49.460;10.850;2023-09-30T07:12:42;3.95;;;1.88;;
41436;SDS011;27178;49.460;10.850;2023-09-30T07:15:10;2.88;;;1.83;;
41436;SDS011;27178;49.460;10.850;2023-09-30T07:17:42;2.05;;;1.85;;
41436;SDS011;27178;49.460;10.850;2023-09-30T07:20:13;3.03;;;1.90;;
41436;SDS011;27178;49.460;10.850;2023-09-30T07:22:42;4.70;;;2.40;;
41436;SDS011;27178;49.460;10.850;2023-09-30T07:25:24;2.88;;;2.08;;
41436;SDS011;27178;49.460;10.850;2023-09-30T07:27:52;2.65;;;2.20;;
41436;SDS011;27178;49.460;10.850;2023-09-30T07:30:21;4.05;;;2.10;;
41436;SDS011;27178;49.460;10.850;2023-09-30T07:32:51;2.40;;;1.88;;
41436;SDS011;27178;49.460;10.850;2023-09-30T07:35:19;2.65;;;1.98;;
41436;SDS011;27178;49.460;10.850;2023-09-30T07:37:48;2.92;;;1.88;;
41436;SDS011;27178;49.460;10.850;2023-09-30T07:40:19;2.83;;;2.22;;
41436;SDS011;27178;49.460;10.850;2023-09-30T07:42:48;4.75;;;2.00;;
41436;SDS011;27178;49.460;10.850;2023-09-30T07:45:18;3.22;;;2.20;;
41436;SDS011;27178;49.460;10.850;2023-09-30T07:47:48;3.70;;;2.08;;
41436;SDS011;27178;49.460;10.850;2023-09-30T07:50:19;3.80;;;2.30;;
41436;SDS011;27178;49.460;10.850;2023-09-30T07:52:47;4.22;;;2.95;;
41436;SDS011;27178;49.460;10.850;2023-09-30T07:55:15;4.93;;;2.97;;
41436;SDS011;27178;49.460;10.850;2023-09-30T07:57:44;3.67;;;2.25;;
41436;SDS011;27178;49.460;10.850;2023-09-30T08:00:13;2.38;;;2.17;;
41436;SDS011;27178;49.460;10.850;2023-09-30T08:02:42;3.40;;;2.13;;
41436;SDS011;27178;49.460;10.850;2023-09-30T08:05:11;4.90;;;2.40;;
41436;SDS011;27178;49.460;10.850;2023-09-30T08:07:41;2.65;;;2.08;;
41436;SDS011;27178;49.460;10.850;2023-09-30T08:10:10;3.85;;;2.33;;
41436;SDS011;27178;49.460;10.850;2023-09-30T08:12:40;3.08;;;2.08;;
41436;SDS011;27178;49.460;10.850;2023-09-30T08:15:09;2.40;;;1.98;;
41436;SDS011;27178;49.460;10.850;2023-09-30T08:17:39;4.45;;;2.58;;
41436;SDS011;27178;49.460;10.850;2023-09-30T08:20:08;3.25;;;2.17;;
41436;SDS011;27178;49.460;10.850;2023-09-30T08:22:38;3.80;;;2.28;;
41436;SDS011;27178;49.460;10.850;2023-09-30T08:25:08;3.50;;;2.40;;
41436;SDS011;27178;49.460;10.850;2023-09-30T08:27:38;3.25;;;2.33;;
41436;SDS011;27178;49.460;10.850;2023-09-30T08:30:06;4.70;;;2.00;;
41436;SDS011;27178;49.460;10.850;2023-09-30T08:32:37;3.78;;;2.20;;
41436;SDS011;27178;49.460;10.850;2023-09-30T08:35:06;2.72;;;2.22;;
41436;SDS011;27178;49.460;10.850;2023-09-30T08:37:36;6.68;;;2.00;;
41436;SDS011;27178;49.460;10.850;2023-09-30T08:40:06;3.63;;;2.10;;
41436;SDS011;27178;49.460;10.850;2023-09-30T08:42:36;3.67;;;2.25;;
41436;SDS011;27178;49.460;10.850;2023-09-30T08:45:08;3.63;;;2.30;;
41436;SDS011;27178;49.460;10.850;2023-09-30T08:47:41;3.55;;;2.40;;
41436;SDS011;27178;49.460;10.850;2023-09-30T08:50:09;4.05;;;2.28;;
41436;SDS011;27178;49.460;10.850;2023-09-30T08:52:38;7.35;;;2.63;;
41436;SDS011;27178;49.460;10.850;2023-09-30T08:55:10;3.53;;;2.00;;
41436;SDS011;27178;49.460;10.850;2023-09-30T08:57:40;3.40;;;2.22;;
41436;SDS011;27178;49.460;10.850;2023-09-30T09:00:09;3.58;;;2.45;;
41436;SDS011;27178;49.460;10.850;2023-09-30T09:02:42;4.53;;;2.28;;
41436;SDS011;27178;49.460;10.850;2023-09-30T09:05:11;3.30;;;2.28;;
41436;SDS011;27178;49.460;10.850;2023-09-30T09:07:39;3.35;;;2.20;;
41436;SDS011;27178;49.460;10.850;2023-09-30T09:10:11;3.85;;;2.22;;
41436;SDS011;27178;49.460;10.850;2023-09-30T09:12:41;2.72;;;2.42;;
41436;SDS011;27178;49.460;10.850;2023-09-30T09:15:20;4.68;;;2.38;;
41436;SDS011;27178;49.460;10.850;2023-09-30T09:17:51;2.80;;;2.30;;
41436;SDS011;27178;49.460;10.850;2023-09-30T09:20:20;3.47;;;2.28;;
41436;SDS011;27178;49.460;10.850;2023-09-30T09:22:51;3.92;;;2.35;;
41436;SDS011;27178;49.460;10.850;2023-09-30T09:25:24;5.68;;;2.38;;
41436;SDS011;27178;49.460;10.850;2023-09-30T09:27:53;3.47;;;2.50;;
41436;SDS011;27178;49.460;10.850;2023-09-30T09:30:22;3.88;;;2.40;;
41436;SDS011;27178;49.460;10.850;2023-09-30T09:32:52;3.08;;;2.03;;
41436;SDS011;27178;49.460;10.850;2023-09-30T09:35:32;3.05;;;2.33;;
41436;SDS011;27178;49.460;10.850;2023-09-30T09:38:02;4.00;;;2.35;;
41436;SDS011;27178;49.460;10.850;2023-09-30T09:40:32;3.38;;;2.20;;
41436;SDS011;27178;49.460;10.850;2023-09-30T09:43:02;3.85;;;2.35;;
41436;SDS011;27178;49.460;10.850;2023-09-30T09:45:33;2.97;;;2.03;;
41436;SDS011;27178;49.460;10.850;2023-09-30T09:48:02;4.05;;;2.40;;
41436;SDS011;27178;49.460;10.850;2023-09-30T09:50:32;3.78;;;2.25;;
41436;SDS011;27178;49.460;10.850;2023-09-30T09:53:03;3.53;;;2.22;;
41436;SDS011;27178;49.460;10.850;2023-09-30T09:55:34;2.67;;;2.30;;
41436;SDS011;27178;49.460;10.850;2023-09-30T09:58:05;3.65;;;2.40;;
41436;SDS011;27178;49.460;10.850;2023-09-30T10:00:36;3.00;;;2.15;;
41436;SDS011;27178;49.460;10.850;2023-09-30T10:03:05;2.83;;;2.10;;
41436;SDS011;27178;49.460;10.850;2023-09-30T10:05:34;4.70;;;2.47;;
41436;SDS011;27178;49.460;10.850;2023-09-30T10:08:03;4.60;;;2.20;;
41436;SDS011;27178;49.460;10.850;2023-09-30T10:10:36;6.22;;;3.22;;
41436;SDS011;27178;49.460;10.850;2023-09-30T10:13:05;4.28;;;2.65;;
41436;SDS011;27178;49.460;10.850;2023-09-30T10:15:34;3.75;;;2.47;;
41436;SDS011;27178;49.460;10.850;2023-09-30T10:18:09;3.33;;;2.60;;
41436;SDS011;27178;49.460;10.850;2023-09-30T10:20:42;16.63;;;4.75;;
41436;SDS011;27178;49.460;10.850;2023-09-30T10:23:22;6.20;;;3.17;;
41436;SDS011;27178;49.460;10.850;2023-09-30T10:26:13;3.90;;;2.45;;
41436;SDS011;27178;49.460;10.850;2023-09-30T10:28:45;2.95;;;2.50;;
41436;SDS011;27178;49.460;10.850;2023-09-30T10:31:16;4.65;;;2.72;;
41436;SDS011;27178;49.460;10.850;2023-09-30T10:36:47;3.13;;;2.20;;
41436;SDS011;27178;49.460;10.850;2023-09-30T10:51:14;2.13;;;1.70;;
41436;SDS011;27178;49.460;10.850;2023-09-30T10:53:46;2.80;;;2.30;;
41436;SDS011;27178;49.460;10.850;2023-09-30T10:56:18;4.35;;;2.63;;
41436;SDS011;27178;49.460;10.850;2023-09-30T10:58:49;5.38;;;2.80;;
41436;SDS011;27178;49.460;10.850;2023-09-30T11:01:18;3.08;;;2.05;;
41436;SDS011;27178;49.460;10.850;2023-09-30T11:03:48;3.95;;;2.58;;
41436;SDS011;27178;49.460;10.850;2023-09-30T11:06:19;3.45;;;2.30;;
41436;SDS011;27178;49.460;10.850;2023-09-30T11:08:51;3.45;;;2.45;;
41436;SDS011;27178;49.460;10.850;2023-09-30T11:11:31;4.07;;;2.75;;
41436;SDS011;27178;49.460;10.850;2023-09-30T11:14:08;5.68;;;2.53;;
41436;SDS011;27178;49.460;10.850;2023-09-30T11:16:44;5.00;;;2.30;;
41436;SDS011;27178;49.460;10.850;2023-09-30T11:19:13;3.88;;;2.40;;
41436;SDS011;27178;49.460;10.850;2023-09-30T11:21:41;5.57;;;2.63;;
41436;SDS011;27178;49.460;10.850;2023-09-30T11:24:13;4.53;;;2.72;;
41436;SDS011;27178;49.460;10.850;2023-09-30T11:26:42;4.20;;;2.72;;
41436;SDS011;27178;49.460;10.850;2023-09-30T11:29:12;3.40;;;2.55;;
41436;SDS011;27178;49.460;10.850;2023-09-30T11:31:43;5.88;;;2.92;;
41436;SDS011;27178;49.460;10.850;2023-09-30T11:34:14;4.13;;;3.03;;
41436;SDS011;27178;49.460;10.850;2023-09-30T11:36:47;3.33;;;2.60;;
41436;SDS011;27178;49.460;10.850;2023-09-30T11:39:26;3.72;;;2.47;;
41436;SDS011;27178;49.460;10.850;2023-09-30T11:41:55;3.60;;;2.55;;
41436;SDS011;27178;49.460;10.850;2023-09-30T11:44:26;4.05;;;2.53;;
41436;SDS011;27178;49.460;10.850;2023-09-30T11:46:55;5.47;;;2.47;;
41436;SDS011;27178;49.460;10.850;2023-09-30T11:49:27;4.53;;;2.65;;
41436;SDS011;27178;49.460;10.850;2023-09-30T11:51:57;4.40;;;2.78;;
41436;SDS011;27178;49.460;10.850;2023-09-30T11:54:30;3.42;;;2.67;;
41436;SDS011;27178;49.460;10.850;2023-09-30T11:56:59;3.70;;;2.63;;
41436;SDS011;27178;49.460;10.850;2023-09-30T11:59:30;4.57;;;3.03;;
41436;SDS011;27178;49.460;10.850;2023-09-30T12:01:59;3.55;;;2.70;;
41436;SDS011;27178;49.460;10.850;2023-09-30T12:04:40;3.70;;;2.50;;
41436;SDS011;27178;49.460;10.850;2023-09-30T12:07:10;4.43;;;2.60;;
41436;SDS011;27178;49.460;10.850;2023-09-30T12:09:40;4.30;;;2.88;;
41436;SDS011;27178;49.460;10.850;2023-09-30T12:12:09;5.68;;;2.72;;
41436;SDS011;27178;49.460;10.850;2023-09-30T12:14:42;3.05;;;2.40;;
41436;SDS011;27178;49.460;10.850;2023-09-30T12:17:11;4.68;;;2.80;;
41436;SDS011;27178;49.460;10.850;2023-09-30T12:19:41;3.90;;;2.55;;
41436;SDS011;27178;49.460;10.850;2023-09-30T12:22:10;4.05;;;2.95;;
41436;SDS011;27178;49.460;10.850;2023-09-30T12:24:38;3.60;;;2.85;;
41436;SDS011;27178;49.460;10.850;2023-09-30T12:27:07;5.30;;;3.13;;
41436;SDS011;27178;49.460;10.850;2023-09-30T12:29:35;6.15;;;3.05;;
41436;SDS011;27178;49.460;10.850;2023-09-30T12:32:07;4.18;;;2.88;;
41436;SDS011;27178;49.460;10.850;2023-09-30T12:34:36;4.90;;;3.10;;
41436;SDS011;27178;49.460;10.850;2023-09-30T12:37:04;3.63;;;3.00;;
41436;SDS011;27178;49.460;10.850;2023-09-30T12:39:33;3.60;;;2.72;;
41436;SDS011;27178;49.460;10.850;2023-09-30T12:42:03;5.72;;;3.22;;
41436;SDS011;27178;49.460;10.850;2023-09-30T12:44:35;3.67;;;2.83;;
41436;SDS011;27178;49.460;10.850;2023-09-30T12:47:04;4.88;;;2.90;;
41436;SDS011;27178;49.460;10.850;2023-09-30T12:49:34;4.03;;;3.13;;
41436;SDS011;27178;49.460;10.850;2023-09-30T12:52:03;3.85;;;2.85;;
41436;SDS011;27178;49.460;10.850;2023-09-30T12:54:32;3.90;;;2.97;;
41436;SDS011;27178;49.460;10.850;2023-09-30T12:57:00;4.22;;;3.25;;
41436;SDS011;27178;49.460;10.850;2023-09-30T12:59:29;4.53;;;3.08;;
41436;SDS011;27178;49.460;10.850;2023-09-30T13:01:57;4.13;;;3.10;;
41436;SDS011;27178;49.460;10.850;2023-09-30T13:04:27;2.90;;;2.58;;
41436;SDS011;27178;49.460;10.850;2023-09-30T13:06:55;5.00;;;3.25;;
41436;SDS011;27178;49.460;10.850;2023-09-30T13:09:24;5.50;;;3.03;;
41436;SDS011;27178;49.460;10.850;2023-09-30T13:11:52;3.97;;;3.00;;
41436;SDS011;27178;49.460;10.850;2023-09-30T13:14:21;3.65;;;2.90;;
41436;SDS011;27178;49.460;10.850;2023-09-30T13:16:49;4.80;;;3.03;;
41436;SDS011;27178;49.460;10.850;2023-09-30T13:19:17;5.33;;;3.10;;
41436;SDS011;27178;49.460;10.850;2023-09-30T13:21:49;3.20;;;2.88;;
41436;SDS011;27178;49.460;10.850;2023-09-30T13:24:19;4.20;;;2.65;;
41436;SDS011;27178;49.460;10.850;2023-09-30T13:26:48;5.25;;;3.17;;
41436;SDS011;27178;49.460;10.850;2023-09-30T13:29:18;4.32;;;3.17;;
41436;SDS011;27178;49.460;10.850;2023-09-30T13:31:47;7.18;;;3.22;;
41436;SDS011;27178;49.460;10.850;2023-09-30T13:34:16;4.63;;;3.05;;
41436;SDS011;27178;49.460;10.850;2023-09-30T13:36:44;5.15;;;3.42;;
41436;SDS011;27178;49.460;10.850;2023-09-30T13:39:15;3.80;;;3.13;;
41436;SDS011;27178;49.460;10.850;2023-09-30T13:41:44;4.45;;;3.63;;
41436;SDS011;27178;49.460;10.850;2023-09-30T13:44:13;4.50;;;3.35;;
41436;SDS011;27178;49.460;10.850;2023-09-30T13:46:42;4.45;;;3.58;;
41436;SDS011;27178;49.460;10.850;2023-09-30T13:49:11;5.28;;;3.47;;
41436;SDS011;27178;49.460;10.850;2023-09-30T13:51:39;4.63;;;3.47;;
41436;SDS011;27178;49.460;10.850;2023-09-30T13:54:08;5.03;;;3.47;;
41436;SDS011;27178;49.460;10.850;2023-09-30T13:56:38;7.88;;;3.50;;
41436;SDS011;27178;49.460;10.850;2023-09-30T13:59:07;4.47;;;3.58;;
41436;SDS011;27178;49.460;10.850;2023-09-30T14:01:37;4.57;;;3.50;;
41436;SDS011;27178;49.460;10.850;2023-09-30T14:04:08;4.82;;;3.70;;
41436;SDS011;27178;49.460;10.850;2023-09-30T14:06:37;4.43;;;3.15;;
41436;SDS011;27178;49.460;10.850;2023-09-30T14:09:05;7.32;;;3.47;;
41436;SDS011;27178;49.460;10.850;2023-09-30T14:12:02;5.07;;;3.28;;
41436;SDS011;27178;49.460;10.850;2023-09-30T14:14:32;4.45;;;3.67;;
41436;SDS011;27178;49.460;10.850;2023-09-30T14:17:00;4.53;;;3.15;;
41436;SDS011;27178;49.460;10.850;2023-09-30T14:19:34;4.82;;;3.63;;
41436;SDS011;27178;49.460;10.850;2023-09-30T14:22:04;5.95;;;3.58;;
41436;SDS011;27178;49.460;10.850;2023-09-30T14:24:32;5.03;;;3.50;;
41436;SDS011;27178;49.460;10.850;2023-09-30T14:27:02;4.63;;;3.50;;
41436;SDS011;27178;49.460;10.850;2023-09-30T14:29:31;5.38;;;3.25;;
41436;SDS011;27178;49.460;10.850;2023-09-30T14:32:00;5.63;;;3.30;;
41436;SDS011;27178;49.460;10.850;2023-09-30T14:34:28;6.03;;;3.47;;
41436;SDS011;27178;49.460;10.850;2023-09-30T14:36:57;6.05;;;3.88;;
41436;SDS011;27178;49.460;10.850;2023-09-30T14:39:25;6.15;;;3.72;;
41436;SDS011;27178;49.460;10.850;2023-09-30T14:41:54;4.50;;;3.47;;
41436;SDS011;27178;49.460;10.850;2023-09-30T14:44:24;4.57;;;3.47;;
41436;SDS011;27178;49.460;10.850;2023-09-30T14:46:53;4.35;;;3.40;;
41436;SDS011;27178;49.460;10.850;2023-09-30T14:49:22;4.88;;;3.40;;
41436;SDS011;27178;49.460;10.850;2023-09-30T14:51:51;3.55;;;3.20;;
41436;SDS011;27178;49.460;10.850;2023-09-30T14:54:20;6.10;;;3.42;;
41436;SDS011;27178;49.460;10.850;2023-09-30T14:56:49;4.13;;;3.72;;
41436;SDS011;27178;49.460;10.850;2023-09-30T14:59:17;4.18;;;3.30;;
41436;SDS011;27178;49.460;10.850;2023-09-30T15:01:47;5.35;;;3.72;;
41436;SDS011;27178;49.460;10.850;2023-09-30T15:04:16;5.47;;;4.05;;